sensor_id;sensor_type;location;lat;lon;timestamp;P1;durP1;ratioP1;P2;durP2;ratioP2
84388;SDS011;74589;48.846;2.382;2024-02-26T00:00:34;4.80;;;2.55;;
84388;SDS011;74589;48.846;2.382;2024-02-26T00:03:00;3.63;;;2.80;;
84388;SDS011;74589;48.846;2.382;2024-02-26T00:05:26;3.33;;;2.60;;
84388;SDS011;74589;48.846;2.382;2024-02-26T00:07:52;4.20;;;2.42;;
84388;SDS011;74589;48.846;2.382;2024-02-26T00:10:17;3.70;;;2.50;;
84388;SDS011;74589;48.846;2.382;2024-02-26T00:12:43;3.00;;;2.40;;
84388;SDS011;74589;48.846;2.382;2024-02-26T00:15:09;3.15;;;2.35;;
84388;SDS011;74589;48.846;2.382;2024-02-26T00:17:35;3.83;;;2.25;;
84388;SDS011;74589;48.846;2.382;2024-02-26T00:20:04;4.88;;;2.30;;
84388;SDS011;74589;48.846;2.382;2024-02-26T00:22:33;4.13;;;2.28;;
84388;SDS011;74589;48.846;2.382;2024-02-26T00:24:59;4.18;;;2.50;;
84388;SDS011;74589;48.846;2.382;2024-02-26T00:27:25;3.45;;;1.92;;
84388;SDS011;74589;48.846;2.382;2024-02-26T00:29:50;4.40;;;2.20;;
84388;SDS011;74589;48.846;2.382;2024-02-26T00:32:16;5.40;;;2.50;;
84388;SDS011;74589;48.846;2.382;2024-02-26T00:34:41;5.53;;;2.50;;
84388;SDS011;74589;48.846;2.382;2024-02-26T00:37:07;3.63;;;2.17;;
84388;SDS011;74589;48.846;2.382;2024-02-26T00:39:33;5.13;;;2.83;;
84388;SDS011;74589;48.846;2.382;2024-02-26T00:41:58;5.00;;;2.50;;
84388;SDS011;74589;48.846;2.382;2024-02-26T00:44:24;6.32;;;2.67;;
84388;SDS011;74589;48.846;2.382;2024-02-26T00:46:50;3.92;;;2.75;;
84388;SDS011;74589;48.846;2.382;2024-02-26T00:49:15;4.63;;;2.45;;
84388;SDS011;74589;48.846;2.382;2024-02-26T00:51:41;4.07;;;2.70;;
84388;SDS011;74589;48.846;2.382;2024-02-26T00:54:06;4.63;;;2.50;;
84388;SDS011;74589;48.846;2.382;2024-02-26T00:56:32;3.45;;;2.50;;
84388;SDS011;74589;48.846;2.382;2024-02-26T00:58:58;3.40;;;2.33;;
84388;SDS011;74589;48.846;2.382;2024-02-26T01:01:23;5.50;;;2.72;;
84388;SDS011;74589;48.846;2.382;2024-02-26T01:03:49;5.32;;;2.85;;
84388;SDS011;74589;48.846;2.382;2024-02-26T01:06:15;5.50;;;2.63;;
84388;SDS011;74589;48.846;2.382;2024-02-26T01:08:40;5.40;;;3.10;;
84388;SDS011;74589;48.846;2.382;2024-02-26T01:11:06;4.30;;;2.50;;
84388;SDS011;74589;48.846;2.382;2024-02-26T01:13:32;3.92;;;2.50;;
84388;SDS011;74589;48.846;2.382;2024-02-26T01:15:58;6.25;;;3.33;;
84388;SDS011;74589;48.846;2.382;2024-02-26T01:18:25;4.95;;;2.70;;
84388;SDS011;74589;48.846;2.382;2024-02-26T01:20:51;4.20;;;2.25;;
84388;SDS011;74589;48.846;2.382;2024-02-26T01:23:19;3.90;;;2.40;;
84388;SDS011;74589;48.846;2.382;2024-02-26T01:25:45;4.20;;;2.42;;
84388;SDS011;74589;48.846;2.382;2024-02-26T01:28:10;5.43;;;2.38;;
84388;SDS011;74589;48.846;2.382;2024-02-26T01:30:36;4.80;;;2.20;;
84388;SDS011;74589;48.846;2.382;2024-02-26T01:33:02;9.25;;;3.53;;
84388;SDS011;74589;48.846;2.382;2024-02-26T01:35:28;9.07;;;5.18;;
84388;SDS011;74589;48.846;2.382;2024-02-26T01:37:54;7.38;;;4.18;;
84388;SDS011;74589;48.846;2.382;2024-02-26T01:40:20;6.15;;;2.65;;
84388;SDS011;74589;48.846;2.382;2024-02-26T01:42:46;6.20;;;2.47;;
84388;SDS011;74589;48.846;2.382;2024-02-26T01:45:16;5.82;;;2.50;;
84388;SDS011;74589;48.846;2.382;2024-02-26T01:47:51;7.10;;;2.67;;
84388;SDS011;74589;48.846;2.382;2024-02-26T01:50:17;5.55;;;2.50;;
84388;SDS011;74589;48.846;2.382;2024-02-26T01:52:44;6.60;;;2.60;;
84388;SDS011;74589;48.846;2.382;2024-02-26T01:55:12;5.15;;;2.60;;
84388;SDS011;74589;48.846;2.382;2024-02-26T01:57:42;6.60;;;2.35;;
84388;SDS011;74589;48.846;2.382;2024-02-26T02:00:10;7.25;;;2.80;;
84388;SDS011;74589;48.846;2.382;2024-02-26T02:02:37;5.80;;;2.50;;
84388;SDS011;74589;48.846;2.382;2024-02-26T02:05:05;6.38;;;2.80;;
84388;SDS011;74589;48.846;2.382;2024-02-26T02:07:31;6.30;;;2.50;;
84388;SDS011;74589;48.846;2.382;2024-02-26T02:09:57;4.35;;;2.35;;
84388;SDS011;74589;48.846;2.382;2024-02-26T02:12:23;4.50;;;2.40;;
84388;SDS011;74589;48.846;2.382;2024-02-26T02:14:49;6.88;;;2.30;;
84388;SDS011;74589;48.846;2.382;2024-02-26T02:17:15;6.53;;;2.60;;
84388;SDS011;74589;48.846;2.382;2024-02-26T02:19:41;6.70;;;2.75;;
84388;SDS011;74589;48.846;2.382;2024-02-26T02:22:07;6.65;;;2.38;;
84388;SDS011;74589;48.846;2.382;2024-02-26T02:24:32;8.07;;;3.03;;
84388;SDS011;74589;48.846;2.382;2024-02-26T02:26:58;6.60;;;2.40;;
84388;SDS011;74589;48.846;2.382;2024-02-26T02:29:24;7.40;;;2.53;;
84388;SDS011;74589;48.846;2.382;2024-02-26T02:31:50;7.68;;;2.47;;
84388;SDS011;74589;48.846;2.382;2024-02-26T02:34:15;7.13;;;2.40;;
84388;SDS011;74589;48.846;2.382;2024-02-26T02:36:53;7.03;;;2.40;;
84388;SDS011;74589;48.846;2.382;2024-02-26T02:39:20;6.25;;;2.65;;
84388;SDS011;74589;48.846;2.382;2024-02-26T02:41:46;6.20;;;2.42;;
84388;SDS011;74589;48.846;2.382;2024-02-26T02:44:12;5.93;;;2.63;;
84388;SDS011;74589;48.846;2.382;2024-02-26T02:46:38;10.63;;;2.40;;
84388;SDS011;74589;48.846;2.382;2024-02-26T02:49:07;6.03;;;2.30;;
84388;SDS011;74589;48.846;2.382;2024-02-26T02:51:34;7.90;;;3.08;;
84388;SDS011;74589;48.846;2.382;2024-02-26T02:54:00;9.75;;;3.00;;
84388;SDS011;74589;48.846;2.382;2024-02-26T02:56:26;7.90;;;2.85;;
84388;SDS011;74589;48.846;2.382;2024-02-26T02:58:51;8.95;;;3.20;;
84388;SDS011;74589;48.846;2.382;2024-02-26T03:01:17;7.95;;;2.72;;
84388;SDS011;74589;48.846;2.382;2024-02-26T03:03:42;9.05;;;2.95;;
84388;SDS011;74589;48.846;2.382;2024-02-26T03:06:08;6.78;;;2.45;;
84388;SDS011;74589;48.846;2.382;2024-02-26T03:08:34;9.40;;;2.90;;
84388;SDS011;74589;48.846;2.382;2024-02-26T03:11:03;8.80;;;3.05;;
84388;SDS011;74589;48.846;2.382;2024-02-26T03:13:29;7.78;;;3.03;;
84388;SDS011;74589;48.846;2.382;2024-02-26T03:15:54;7.05;;;2.78;;
84388;SDS011;74589;48.846;2.382;2024-02-26T03:18:20;7.90;;;2.58;;
84388;SDS011;74589;48.846;2.382;2024-02-26T03:20:46;9.25;;;2.85;;
84388;SDS011;74589;48.846;2.382;2024-02-26T03:23:12;5.68;;;2.42;;
84388;SDS011;74589;48.846;2.382;2024-02-26T03:25:41;8.00;;;2.83;;
84388;SDS011;74589;48.846;2.382;2024-02-26T03:28:07;8.93;;;3.05;;
84388;SDS011;74589;48.846;2.382;2024-02-26T03:30:33;8.55;;;3.13;;
84388;SDS011;74589;48.846;2.382;2024-02-26T03:32:59;5.95;;;2.50;;
84388;SDS011;74589;48.846;2.382;2024-02-26T03:35:25;6.13;;;2.47;;
84388;SDS011;74589;48.846;2.382;2024-02-26T03:37:50;6.30;;;2.30;;
84388;SDS011;74589;48.846;2.382;2024-02-26T03:40:16;6.63;;;2.40;;
84388;SDS011;74589;48.846;2.382;2024-02-26T03:42:44;5.47;;;2.20;;
84388;SDS011;74589;48.846;2.382;2024-02-26T03:45:10;10.13;;;2.70;;
84388;SDS011;74589;48.846;2.382;2024-02-26T03:47:37;8.82;;;2.85;;
84388;SDS011;74589;48.846;2.382;2024-02-26T03:50:05;8.80;;;2.65;;
84388;SDS011;74589;48.846;2.382;2024-02-26T03:52:31;10.40;;;2.72;;
84388;SDS011;74589;48.846;2.382;2024-02-26T03:54:57;7.85;;;2.72;;
84388;SDS011;74589;48.846;2.382;2024-02-26T03:57:23;5.78;;;2.50;;
84388;SDS011;74589;48.846;2.382;2024-02-26T03:59:48;6.10;;;2.20;;
84388;SDS011;74589;48.846;2.382;2024-02-26T04:02:14;7.40;;;2.63;;
84388;SDS011;74589;48.846;2.382;2024-02-26T04:04:41;6.95;;;2.60;;
84388;SDS011;74589;48.846;2.382;2024-02-26T04:07:06;5.63;;;2.05;;
84388;SDS011;74589;48.846;2.382;2024-02-26T04:09:32;5.80;;;2.13;;
84388;SDS011;74589;48.846;2.382;2024-02-26T04:11:58;7.18;;;2.40;;
84388;SDS011;74589;48.846;2.382;2024-02-26T04:14:24;5.50;;;2.22;;
84388;SDS011;74589;48.846;2.382;2024-02-26T04:16:49;5.75;;;2.60;;
84388;SDS011;74589;48.846;2.382;2024-02-26T04:19:17;6.57;;;2.28;;
84388;SDS011;74589;48.846;2.382;2024-02-26T04:21:43;9.52;;;2.40;;
84388;SDS011;74589;48.846;2.382;2024-02-26T04:24:09;5.97;;;2.10;;
84388;SDS011;74589;48.846;2.382;2024-02-26T04:26:34;7.63;;;2.50;;
84388;SDS011;74589;48.846;2.382;2024-02-26T04:29:00;6.55;;;2.50;;
84388;SDS011;74589;48.846;2.382;2024-02-26T04:31:25;7.15;;;2.50;;
84388;SDS011;74589;48.846;2.382;2024-02-26T04:33:51;10.43;;;2.70;;
84388;SDS011;74589;48.846;2.382;2024-02-26T04:36:17;6.55;;;2.50;;
84388;SDS011;74589;48.846;2.382;2024-02-26T04:38:43;7.00;;;2.70;;
84388;SDS011;74589;48.846;2.382;2024-02-26T04:41:09;5.97;;;2.53;;
84388;SDS011;74589;48.846;2.382;2024-02-26T04:43:35;7.63;;;2.35;;
84388;SDS011;74589;48.846;2.382;2024-02-26T04:46:06;8.18;;;2.70;;
84388;SDS011;74589;48.846;2.382;2024-02-26T04:48:33;7.85;;;2.63;;
84388;SDS011;74589;48.846;2.382;2024-02-26T04:50:59;6.95;;;2.70;;
84388;SDS011;74589;48.846;2.382;2024-02-26T04:53:25;7.05;;;2.45;;
84388;SDS011;74589;48.846;2.382;2024-02-26T04:55:50;8.10;;;2.75;;
84388;SDS011;74589;48.846;2.382;2024-02-26T04:58:16;7.00;;;2.55;;
84388;SDS011;74589;48.846;2.382;2024-02-26T05:00:42;6.97;;;2.70;;
84388;SDS011;74589;48.846;2.382;2024-02-26T05:03:08;10.02;;;3.10;;
84388;SDS011;74589;48.846;2.382;2024-02-26T05:05:38;8.27;;;2.80;;
84388;SDS011;74589;48.846;2.382;2024-02-26T05:08:07;7.18;;;2.22;;
84388;SDS011;74589;48.846;2.382;2024-02-26T05:10:33;6.15;;;2.42;;
84388;SDS011;74589;48.846;2.382;2024-02-26T05:12:59;6.65;;;2.80;;
84388;SDS011;74589;48.846;2.382;2024-02-26T05:15:25;5.57;;;2.42;;
84388;SDS011;74589;48.846;2.382;2024-02-26T05:17:50;8.65;;;2.97;;
84388;SDS011;74589;48.846;2.382;2024-02-26T05:20:17;8.40;;;3.30;;
84388;SDS011;74589;48.846;2.382;2024-02-26T05:22:43;7.57;;;2.78;;
84388;SDS011;74589;48.846;2.382;2024-02-26T05:25:09;8.43;;;3.00;;
84388;SDS011;74589;48.846;2.382;2024-02-26T05:27:34;7.63;;;2.60;;
84388;SDS011;74589;48.846;2.382;2024-02-26T05:30:00;7.45;;;2.72;;
84388;SDS011;74589;48.846;2.382;2024-02-26T05:32:26;8.13;;;2.58;;
84388;SDS011;74589;48.846;2.382;2024-02-26T05:34:51;7.35;;;2.75;;
84388;SDS011;74589;48.846;2.382;2024-02-26T05:37:17;10.85;;;3.13;;
84388;SDS011;74589;48.846;2.382;2024-02-26T05:39:43;6.90;;;2.40;;
84388;SDS011;74589;48.846;2.382;2024-02-26T05:42:09;10.18;;;3.05;;
84388;SDS011;74589;48.846;2.382;2024-02-26T05:44:34;8.05;;;3.00;;
84388;SDS011;74589;48.846;2.382;2024-02-26T05:47:00;9.48;;;3.35;;
84388;SDS011;74589;48.846;2.382;2024-02-26T05:49:25;8.55;;;3.03;;
84388;SDS011;74589;48.846;2.382;2024-02-26T05:51:51;7.78;;;2.97;;
84388;SDS011;74589;48.846;2.382;2024-02-26T05:54:17;8.20;;;2.95;;
84388;SDS011;74589;48.846;2.382;2024-02-26T05:56:42;9.45;;;3.17;;
84388;SDS011;74589;48.846;2.382;2024-02-26T05:59:08;9.38;;;3.33;;
84388;SDS011;74589;48.846;2.382;2024-02-26T06:01:33;11.90;;;2.97;;
84388;SDS011;74589;48.846;2.382;2024-02-26T06:03:59;10.50;;;3.15;;
84388;SDS011;74589;48.846;2.382;2024-02-26T06:06:24;9.45;;;2.80;;
84388;SDS011;74589;48.846;2.382;2024-02-26T06:08:50;8.75;;;3.10;;
84388;SDS011;74589;48.846;2.382;2024-02-26T06:11:16;7.43;;;2.92;;
84388;SDS011;74589;48.846;2.382;2024-02-26T06:13:41;9.48;;;3.20;;
84388;SDS011;74589;48.846;2.382;2024-02-26T06:16:10;8.10;;;3.17;;
84388;SDS011;74589;48.846;2.382;2024-02-26T06:18:36;8.10;;;2.90;;
84388;SDS011;74589;48.846;2.382;2024-02-26T06:21:01;7.50;;;2.80;;
84388;SDS011;74589;48.846;2.382;2024-02-26T06:23:27;9.63;;;2.88;;
84388;SDS011;74589;48.846;2.382;2024-02-26T06:25:53;9.60;;;2.70;;
84388;SDS011;74589;48.846;2.382;2024-02-26T06:28:18;8.77;;;3.00;;
84388;SDS011;74589;48.846;2.382;2024-02-26T06:30:44;8.23;;;2.75;;
84388;SDS011;74589;48.846;2.382;2024-02-26T06:33:11;9.85;;;3.22;;
84388;SDS011;74589;48.846;2.382;2024-02-26T06:35:37;7.65;;;2.78;;
84388;SDS011;74589;48.846;2.382;2024-02-26T06:38:03;6.70;;;2.50;;
84388;SDS011;74589;48.846;2.382;2024-02-26T06:40:29;7.97;;;2.80;;
84388;SDS011;74589;48.846;2.382;2024-02-26T06:42:55;8.57;;;2.95;;
84388;SDS011;74589;48.846;2.382;2024-02-26T06:45:21;6.03;;;2.60;;
84388;SDS011;74589;48.846;2.382;2024-02-26T06:47:47;8.95;;;2.92;;
84388;SDS011;74589;48.846;2.382;2024-02-26T06:50:13;8.45;;;3.10;;
84388;SDS011;74589;48.846;2.382;2024-02-26T06:52:38;11.02;;;2.95;;
84388;SDS011;74589;48.846;2.382;2024-02-26T06:55:04;9.60;;;3.00;;
84388;SDS011;74589;48.846;2.382;2024-02-26T06:57:33;10.50;;;3.45;;
84388;SDS011;74589;48.846;2.382;2024-02-26T06:59:58;7.97;;;2.80;;
84388;SDS011;74589;48.846;2.382;2024-02-26T07:02:24;7.65;;;3.00;;
84388;SDS011;74589;48.846;2.382;2024-02-26T07:04:50;8.00;;;3.13;;
84388;SDS011;74589;48.846;2.382;2024-02-26T07:07:15;9.52;;;3.10;;
84388;SDS011;74589;48.846;2.382;2024-02-26T07:09:43;8.15;;;2.90;;
84388;SDS011;74589;48.846;2.382;2024-02-26T07:12:09;8.27;;;2.83;;
84388;SDS011;74589;48.846;2.382;2024-02-26T07:14:35;6.68;;;2.75;;
84388;SDS011;74589;48.846;2.382;2024-02-26T07:17:02;6.60;;;2.55;;
84388;SDS011;74589;48.846;2.382;2024-02-26T07:19:28;8.52;;;2.90;;
84388;SDS011;74589;48.846;2.382;2024-02-26T07:21:54;8.30;;;2.80;;
84388;SDS011;74589;48.846;2.382;2024-02-26T07:24:20;8.13;;;2.92;;
84388;SDS011;74589;48.846;2.382;2024-02-26T07:26:46;11.27;;;3.00;;
84388;SDS011;74589;48.846;2.382;2024-02-26T07:29:12;9.02;;;3.13;;
84388;SDS011;74589;48.846;2.382;2024-02-26T07:31:37;8.50;;;2.80;;
84388;SDS011;74589;48.846;2.382;2024-02-26T07:34:03;9.00;;;3.03;;
84388;SDS011;74589;48.846;2.382;2024-02-26T07:36:28;7.65;;;2.92;;
84388;SDS011;74589;48.846;2.382;2024-02-26T07:38:54;9.18;;;3.75;;
84388;SDS011;74589;48.846;2.382;2024-02-26T07:41:20;8.48;;;3.38;;
84388;SDS011;74589;48.846;2.382;2024-02-26T07:43:45;9.90;;;3.50;;
84388;SDS011;74589;48.846;2.382;2024-02-26T07:46:11;7.32;;;3.15;;
84388;SDS011;74589;48.846;2.382;2024-02-26T07:48:37;9.10;;;3.28;;
84388;SDS011;74589;48.846;2.382;2024-02-26T07:51:03;13.20;;;4.50;;
84388;SDS011;74589;48.846;2.382;2024-02-26T07:53:29;9.30;;;4.50;;
84388;SDS011;74589;48.846;2.382;2024-02-26T07:55:55;12.50;;;7.35;;
84388;SDS011;74589;48.846;2.382;2024-02-26T07:58:21;8.73;;;3.80;;
84388;SDS011;74589;48.846;2.382;2024-02-26T08:00:48;7.80;;;3.58;;
84388;SDS011;74589;48.846;2.382;2024-02-26T08:03:14;8.60;;;3.50;;
84388;SDS011;74589;48.846;2.382;2024-02-26T08:05:41;9.07;;;3.35;;
84388;SDS011;74589;48.846;2.382;2024-02-26T08:08:08;7.28;;;3.17;;
84388;SDS011;74589;48.846;2.382;2024-02-26T08:10:34;7.75;;;3.25;;
84388;SDS011;74589;48.846;2.382;2024-02-26T08:12:59;9.95;;;3.67;;
84388;SDS011;74589;48.846;2.382;2024-02-26T08:15:33;8.43;;;3.35;;
84388;SDS011;74589;48.846;2.382;2024-02-26T08:18:04;8.77;;;3.15;;
84388;SDS011;74589;48.846;2.382;2024-02-26T08:20:30;9.13;;;3.30;;
84388;SDS011;74589;48.846;2.382;2024-02-26T08:22:57;7.45;;;3.38;;
84388;SDS011;74589;48.846;2.382;2024-02-26T08:25:23;8.25;;;2.97;;
84388;SDS011;74589;48.846;2.382;2024-02-26T08:27:49;9.45;;;3.25;;
84388;SDS011;74589;48.846;2.382;2024-02-26T08:30:15;7.80;;;2.95;;
84388;SDS011;74589;48.846;2.382;2024-02-26T08:32:45;8.23;;;3.25;;
84388;SDS011;74589;48.846;2.382;2024-02-26T08:35:12;7.72;;;2.70;;
84388;SDS011;74589;48.846;2.382;2024-02-26T08:37:38;6.45;;;2.63;;
84388;SDS011;74589;48.846;2.382;2024-02-26T08:40:03;9.45;;;3.22;;
84388;SDS011;74589;48.846;2.382;2024-02-26T08:42:30;7.20;;;3.08;;
84388;SDS011;74589;48.846;2.382;2024-02-26T08:44:56;8.25;;;3.53;;
84388;SDS011;74589;48.846;2.382;2024-02-26T08:47:23;8.80;;;3.33;;
84388;SDS011;74589;48.846;2.382;2024-02-26T08:49:49;9.30;;;3.28;;
84388;SDS011;74589;48.846;2.382;2024-02-26T08:52:15;6.60;;;3.15;;
84388;SDS011;74589;48.846;2.382;2024-02-26T08:54:40;8.35;;;3.10;;
84388;SDS011;74589;48.846;2.382;2024-02-26T08:57:06;9.93;;;3.20;;
84388;SDS011;74589;48.846;2.382;2024-02-26T08:59:31;7.40;;;3.60;;
84388;SDS011;74589;48.846;2.382;2024-02-26T09:01:57;9.27;;;3.50;;
84388;SDS011;74589;48.846;2.382;2024-02-26T09:04:23;6.80;;;3.30;;
84388;SDS011;74589;48.846;2.382;2024-02-26T09:06:48;7.43;;;3.17;;
84388;SDS011;74589;48.846;2.382;2024-02-26T09:09:14;6.60;;;3.03;;
84388;SDS011;74589;48.846;2.382;2024-02-26T09:11:40;7.90;;;2.75;;
84388;SDS011;74589;48.846;2.382;2024-02-26T09:14:05;5.95;;;3.03;;
84388;SDS011;74589;48.846;2.382;2024-02-26T09:16:31;7.13;;;2.85;;
84388;SDS011;74589;48.846;2.382;2024-02-26T09:18:57;8.05;;;3.08;;
84388;SDS011;74589;48.846;2.382;2024-02-26T09:21:22;7.30;;;3.30;;
84388;SDS011;74589;48.846;2.382;2024-02-26T09:23:49;5.38;;;2.90;;
84388;SDS011;74589;48.846;2.382;2024-02-26T09:26:16;6.35;;;2.85;;
84388;SDS011;74589;48.846;2.382;2024-02-26T09:28:42;7.32;;;3.13;;
84388;SDS011;74589;48.846;2.382;2024-02-26T09:31:07;5.10;;;2.55;;
84388;SDS011;74589;48.846;2.382;2024-02-26T09:33:33;7.47;;;2.92;;
84388;SDS011;74589;48.846;2.382;2024-02-26T09:35:59;4.97;;;2.47;;
84388;SDS011;74589;48.846;2.382;2024-02-26T09:38:28;7.75;;;3.35;;
84388;SDS011;74589;48.846;2.382;2024-02-26T09:40:55;5.75;;;2.72;;
84388;SDS011;74589;48.846;2.382;2024-02-26T09:43:23;7.68;;;2.75;;
84388;SDS011;74589;48.846;2.382;2024-02-26T09:45:54;9.23;;;2.95;;
84388;SDS011;74589;48.846;2.382;2024-02-26T09:48:20;7.22;;;3.22;;
84388;SDS011;74589;48.846;2.382;2024-02-26T09:50:48;7.47;;;3.15;;
84388;SDS011;74589;48.846;2.382;2024-02-26T09:53:14;6.68;;;2.72;;
84388;SDS011;74589;48.846;2.382;2024-02-26T09:55:41;5.28;;;2.70;;
84388;SDS011;74589;48.846;2.382;2024-02-26T09:58:08;5.90;;;3.00;;
84388;SDS011;74589;48.846;2.382;2024-02-26T10:00:37;9.82;;;3.38;;
84388;SDS011;74589;48.846;2.382;2024-02-26T10:03:04;7.65;;;3.22;;
84388;SDS011;74589;48.846;2.382;2024-02-26T10:05:31;5.43;;;2.75;;
84388;SDS011;74589;48.846;2.382;2024-02-26T10:07:58;5.32;;;2.40;;
84388;SDS011;74589;48.846;2.382;2024-02-26T10:10:26;6.55;;;2.80;;
84388;SDS011;74589;48.846;2.382;2024-02-26T10:12:54;5.03;;;2.50;;
84388;SDS011;74589;48.846;2.382;2024-02-26T10:15:20;4.93;;;2.40;;
84388;SDS011;74589;48.846;2.382;2024-02-26T10:17:45;5.90;;;2.40;;
84388;SDS011;74589;48.846;2.382;2024-02-26T10:20:15;8.57;;;2.65;;
84388;SDS011;74589;48.846;2.382;2024-02-26T10:22:48;7.60;;;2.67;;
84388;SDS011;74589;48.846;2.382;2024-02-26T10:25:14;5.20;;;2.30;;
84388;SDS011;74589;48.846;2.382;2024-02-26T10:27:40;7.40;;;3.28;;
84388;SDS011;74589;48.846;2.382;2024-02-26T10:32:45;5.53;;;2.80;;
84388;SDS011;74589;48.846;2.382;2024-02-26T10:35:12;7.20;;;2.90;;
84388;SDS011;74589;48.846;2.382;2024-02-26T10:37:39;4.72;;;2.67;;
84388;SDS011;74589;48.846;2.382;2024-02-26T10:40:06;4.40;;;2.30;;
84388;SDS011;74589;48.846;2.382;2024-02-26T10:42:37;3.80;;;2.10;;
84388;SDS011;74589;48.846;2.382;2024-02-26T10:45:06;3.75;;;2.50;;
84388;SDS011;74589;48.846;2.382;2024-02-26T10:47:34;3.85;;;2.00;;
84388;SDS011;74589;48.846;2.382;2024-02-26T10:50:01;3.65;;;2.20;;
84388;SDS011;74589;48.846;2.382;2024-02-26T10:52:28;4.60;;;2.03;;
84388;SDS011;74589;48.846;2.382;2024-02-26T10:54:57;4.90;;;2.13;;
84388;SDS011;74589;48.846;2.382;2024-02-26T10:57:27;5.03;;;2.10;;
84388;SDS011;74589;48.846;2.382;2024-02-26T11:00:05;3.60;;;1.50;;
84388;SDS011;74589;48.846;2.382;2024-02-26T11:02:35;2.45;;;1.60;;
84388;SDS011;74589;48.846;2.382;2024-02-26T11:05:04;2.75;;;1.63;;
84388;SDS011;74589;48.846;2.382;2024-02-26T11:07:31;3.47;;;1.80;;
84388;SDS011;74589;48.846;2.382;2024-02-26T11:09:59;3.22;;;1.92;;
84388;SDS011;74589;48.846;2.382;2024-02-26T11:12:25;5.15;;;3.17;;
84388;SDS011;74589;48.846;2.382;2024-02-26T11:14:53;2.78;;;1.70;;
84388;SDS011;74589;48.846;2.382;2024-02-26T11:17:21;3.15;;;1.90;;
84388;SDS011;74589;48.846;2.382;2024-02-26T11:19:48;3.63;;;2.17;;
84388;SDS011;74589;48.846;2.382;2024-02-26T11:22:15;5.65;;;3.03;;
84388;SDS011;74589;48.846;2.382;2024-02-26T11:24:40;4.43;;;2.47;;
84388;SDS011;74589;48.846;2.382;2024-02-26T11:27:08;7.68;;;4.57;;
84388;SDS011;74589;48.846;2.382;2024-02-26T11:29:40;5.55;;;3.08;;
84388;SDS011;74589;48.846;2.382;2024-02-26T11:32:10;4.05;;;2.30;;
84388;SDS011;74589;48.846;2.382;2024-02-26T11:34:36;5.85;;;2.70;;
84388;SDS011;74589;48.846;2.382;2024-02-26T11:39:37;5.35;;;2.50;;
84388;SDS011;74589;48.846;2.382;2024-02-26T11:42:06;5.50;;;2.72;;
84388;SDS011;74589;48.846;2.382;2024-02-26T11:44:33;4.05;;;2.33;;
84388;SDS011;74589;48.846;2.382;2024-02-26T11:47:09;3.75;;;2.35;;
84388;SDS011;74589;48.846;2.382;2024-02-26T11:49:35;4.93;;;2.58;;
84388;SDS011;74589;48.846;2.382;2024-02-26T11:52:04;3.90;;;3.15;;
84388;SDS011;74589;48.846;2.382;2024-02-26T11:54:51;3.40;;;1.92;;
84388;SDS011;74589;48.846;2.382;2024-02-26T11:57:24;3.65;;;2.50;;
84388;SDS011;74589;48.846;2.382;2024-02-26T12:02:44;2.55;;;1.70;;
84388;SDS011;74589;48.846;2.382;2024-02-26T12:05:12;6.47;;;1.90;;
84388;SDS011;74589;48.846;2.382;2024-02-26T12:07:41;2.50;;;2.00;;
84388;SDS011;74589;48.846;2.382;2024-02-26T12:10:27;2.85;;;1.88;;
84388;SDS011;74589;48.846;2.382;2024-02-26T12:13:05;3.85;;;3.28;;
84388;SDS011;74589;48.846;2.382;2024-02-26T12:15:37;3.88;;;2.40;;
84388;SDS011;74589;48.846;2.382;2024-02-26T12:18:04;2.80;;;2.30;;
84388;SDS011;74589;48.846;2.382;2024-02-26T12:20:35;3.17;;;2.10;;
84388;SDS011;74589;48.846;2.382;2024-02-26T12:23:02;2.92;;;1.90;;
84388;SDS011;74589;48.846;2.382;2024-02-26T12:25:29;2.60;;;1.90;;
84388;SDS011;74589;48.846;2.382;2024-02-26T12:27:56;2.20;;;1.63;;
84388;SDS011;74589;48.846;2.382;2024-02-26T12:30:22;2.78;;;1.50;;
84388;SDS011;74589;48.846;2.382;2024-02-26T12:32:50;2.20;;;1.60;;
84388;SDS011;74589;48.846;2.382;2024-02-26T12:35:21;1.73;;;1.60;;
84388;SDS011;74589;48.846;2.382;2024-02-26T12:37:48;3.08;;;1.92;;
84388;SDS011;74589;48.846;2.382;2024-02-26T12:40:16;4.60;;;1.90;;
84388;SDS011;74589;48.846;2.382;2024-02-26T12:42:42;2.22;;;1.70;;
84388;SDS011;74589;48.846;2.382;2024-02-26T12:45:09;3.08;;;1.70;;
84388;SDS011;74589;48.846;2.382;2024-02-26T12:47:39;3.20;;;2.10;;
84388;SDS011;74589;48.846;2.382;2024-02-26T12:50:09;2.85;;;1.80;;
84388;SDS011;74589;48.846;2.382;2024-02-26T12:52:45;1.83;;;1.45;;
84388;SDS011;74589;48.846;2.382;2024-02-26T12:55:15;4.40;;;1.67;;
84388;SDS011;74589;48.846;2.382;2024-02-26T12:57:43;2.55;;;1.77;;
84388;SDS011;74589;48.846;2.382;2024-02-26T13:00:14;4.00;;;2.20;;
84388;SDS011;74589;48.846;2.382;2024-02-26T13:02:41;5.50;;;1.67;;
84388;SDS011;74589;48.846;2.382;2024-02-26T13:05:09;3.00;;;1.70;;
84388;SDS011;74589;48.846;2.382;2024-02-26T13:07:40;3.50;;;1.90;;
84388;SDS011;74589;48.846;2.382;2024-02-26T13:10:07;3.75;;;1.70;;
84388;SDS011;74589;48.846;2.382;2024-02-26T13:12:33;2.60;;;1.70;;
84388;SDS011;74589;48.846;2.382;2024-02-26T13:15:02;2.72;;;1.60;;
84388;SDS011;74589;48.846;2.382;2024-02-26T13:17:32;1.80;;;1.40;;
84388;SDS011;74589;48.846;2.382;2024-02-26T13:19:58;2.10;;;1.40;;
84388;SDS011;74589;48.846;2.382;2024-02-26T13:22:23;4.13;;;1.70;;
84388;SDS011;74589;48.846;2.382;2024-02-26T13:24:59;1.75;;;1.38;;
84388;SDS011;74589;48.846;2.382;2024-02-26T13:27:25;2.03;;;1.58;;
84388;SDS011;74589;48.846;2.382;2024-02-26T13:30:10;1.80;;;1.50;;
84388;SDS011;74589;48.846;2.382;2024-02-26T13:32:40;1.88;;;1.50;;
84388;SDS011;74589;48.846;2.382;2024-02-26T13:35:09;2.33;;;1.63;;
84388;SDS011;74589;48.846;2.382;2024-02-26T13:37:36;2.50;;;1.30;;
84388;SDS011;74589;48.846;2.382;2024-02-26T13:40:06;3.53;;;1.58;;
84388;SDS011;74589;48.846;2.382;2024-02-26T13:42:34;2.55;;;1.80;;
84388;SDS011;74589;48.846;2.382;2024-02-26T13:45:00;2.00;;;1.70;;
84388;SDS011;74589;48.846;2.382;2024-02-26T13:47:26;3.80;;;1.98;;
84388;SDS011;74589;48.846;2.382;2024-02-26T13:49:52;1.80;;;1.60;;
84388;SDS011;74589;48.846;2.382;2024-02-26T13:52:18;2.85;;;2.20;;
84388;SDS011;74589;48.846;2.382;2024-02-26T13:54:45;2.50;;;2.25;;
84388;SDS011;74589;48.846;2.382;2024-02-26T13:57:11;2.30;;;1.65;;
84388;SDS011;74589;48.846;2.382;2024-02-26T13:59:36;1.45;;;1.13;;
84388;SDS011;74589;48.846;2.382;2024-02-26T14:02:02;1.60;;;1.50;;
84388;SDS011;74589;48.846;2.382;2024-02-26T14:04:28;3.38;;;1.42;;
84388;SDS011;74589;48.846;2.382;2024-02-26T14:06:54;1.90;;;1.45;;
84388;SDS011;74589;48.846;2.382;2024-02-26T14:09:19;1.15;;;1.05;;
84388;SDS011;74589;48.846;2.382;2024-02-26T14:11:45;2.35;;;1.35;;
84388;SDS011;74589;48.846;2.382;2024-02-26T14:14:11;2.10;;;1.40;;
84388;SDS011;74589;48.846;2.382;2024-02-26T14:16:36;1.88;;;1.20;;
84388;SDS011;74589;48.846;2.382;2024-02-26T14:19:02;1.83;;;1.27;;
84388;SDS011;74589;48.846;2.382;2024-02-26T14:21:28;1.38;;;1.27;;
84388;SDS011;74589;48.846;2.382;2024-02-26T14:23:54;2.38;;;1.30;;
84388;SDS011;74589;48.846;2.382;2024-02-26T14:26:21;1.30;;;1.20;;
84388;SDS011;74589;48.846;2.382;2024-02-26T14:28:49;2.42;;;1.48;;
84388;SDS011;74589;48.846;2.382;2024-02-26T14:31:18;1.50;;;1.30;;
84388;SDS011;74589;48.846;2.382;2024-02-26T14:33:44;2.13;;;1.20;;
84388;SDS011;74589;48.846;2.382;2024-02-26T14:36:09;1.50;;;1.20;;
84388;SDS011;74589;48.846;2.382;2024-02-26T14:38:36;2.08;;;1.38;;
84388;SDS011;74589;48.846;2.382;2024-02-26T14:41:02;2.00;;;1.33;;
84388;SDS011;74589;48.846;2.382;2024-02-26T14:43:29;1.73;;;1.52;;
84388;SDS011;74589;48.846;2.382;2024-02-26T14:45:55;1.30;;;1.20;;
84388;SDS011;74589;48.846;2.382;2024-02-26T14:48:22;1.77;;;1.40;;
84388;SDS011;74589;48.846;2.382;2024-02-26T14:50:48;1.77;;;1.45;;
84388;SDS011;74589;48.846;2.382;2024-02-26T14:53:15;2.50;;;1.60;;